logo
Rechercher aéroport 
image banner adimage banner adimage banner ad
image banner ad

EGTU - Dunkeswell

Situé à Exeter, United Kingdom

ICAO - EGTU, IATA -

Données fournies par Airmate  

Information générale

Coordonnées: N50°51'36" W3°14'5"
Élévation : 839 feet MSL.
 
Voir autres Aéroports à England

Données opérationnelles

Special qualification required
Heure actuelle UTC:
Heure actuelle locale:
Météo à : EGTE - Exeter ( 19 km )
METAR: EGTE 191550Z 31014KT 280V340 9999 BKN020 13/09 Q1020
TAF: TAF EGTE 191401Z 1915/1924 31012KT 9999 SCT020 BECMG 1920/1923 01008KT
Voir NOTAMs / SUP AIP / TFR affectant cet aéroport [VIEW]
Fréquences de communication: [VIEW]

Pistes:

Identifiant RWYQFULongueur (ft)Largeur (ft)SurfaceLDA (ft)
0441°3173148ASP
22221°3173148ASP
17170°211375ASP
35350°211375ASP

Coordonnées de l'aéroport

Adresse: Exeter United Kingdom

Autres services d'aviation

Écoles de pilotage

A.H. Helicopter Services Limited

A.H. Helicopter Services Limited

Ace Flight Training Llp

Ace Flight Training Llp
info@aceflight.co.uk+44 01404891811

Devon & Somerset Flight Training Limited

Devon & Somerset Flight Training Limited
info@dsft.co.uk+44 01404891643

Vue satellite de EGTU